sensor_id;sensor_type;location;lat;lon;timestamp;pressure;altitude;pressure_sealevel;temperature;humidity
45941;BME280;31858;46.008;8.978;2022-10-23T00:00:06;94996.56;;;14.63;100.00
45941;BME280;31858;46.008;8.978;2022-10-23T00:10:08;94978.19;;;14.58;100.00
45941;BME280;31858;46.008;8.978;2022-10-23T00:20:12;94972.06;;;14.47;100.00
45941;BME280;31858;46.008;8.978;2022-10-23T00:30:14;94997.34;;;14.18;100.00
45941;BME280;31858;46.008;8.978;2022-10-23T00:40:17;94995.81;;;14.10;100.00
45941;BME280;31858;46.008;8.978;2022-10-23T00:50:21;94998.84;;;13.83;100.00
45941;BME280;31858;46.008;8.978;2022-10-23T01:00:27;94993.84;;;13.78;100.00
45941;BME280;31858;46.008;8.978;2022-10-23T01:10:33;94978.94;;;13.84;100.00
45941;BME280;31858;46.008;8.978;2022-10-23T01:20:42;95026.69;;;13.57;100.00
45941;BME280;31858;46.008;8.978;2022-10-23T01:30:47;95007.94;;;13.54;100.00
45941;BME280;31858;46.008;8.978;2022-10-23T01:40:52;95012.88;;;13.37;100.00
45941;BME280;31858;46.008;8.978;2022-10-23T01:51:00;95000.28;;;13.45;100.00
45941;BME280;31858;46.008;8.978;2022-10-23T02:01:05;95033.13;;;13.35;100.00
45941;BME280;31858;46.008;8.978;2022-10-23T02:11:10;94993.81;;;13.57;100.00
45941;BME280;31858;46.008;8.978;2022-10-23T02:21:16;94996.81;;;13.37;100.00
45941;BME280;31858;46.008;8.978;2022-10-23T02:31:21;95004.81;;;13.30;100.00
45941;BME280;31858;46.008;8.978;2022-10-23T02:41:37;94992.97;;;13.35;100.00
45941;BME280;31858;46.008;8.978;2022-10-23T02:51:51;94984.25;;;13.56;100.00
45941;BME280;31858;46.008;8.978;2022-10-23T03:01:57;94976.59;;;13.58;100.00
45941;BME280;31858;46.008;8.978;2022-10-23T03:12:04;94972.75;;;13.52;100.00
45941;BME280;31858;46.008;8.978;2022-10-23T03:22:05;94969.69;;;13.50;100.00
45941;BME280;31858;46.008;8.978;2022-10-23T03:32:08;94974.69;;;13.62;100.00
45941;BME280;31858;46.008;8.978;2022-10-23T03:42:10;94975.44;;;13.55;100.00
45941;BME280;31858;46.008;8.978;2022-10-23T03:52:13;94969.34;;;13.58;100.00
45941;BME280;31858;46.008;8.978;2022-10-23T04:02:14;94970.06;;;13.48;100.00
45941;BME280;31858;46.008;8.978;2022-10-23T04:12:17;94990.72;;;13.44;100.00
45941;BME280;31858;46.008;8.978;2022-10-23T04:22:19;94992.97;;;13.35;100.00
45941;BME280;31858;46.008;8.978;2022-10-23T04:32:22;94978.09;;;13.48;100.00
45941;BME280;31858;46.008;8.978;2022-10-23T04:42:23;94991.09;;;13.43;100.00
45941;BME280;31858;46.008;8.978;2022-10-23T04:52:26;95013.66;;;13.45;100.00
45941;BME280;31858;46.008;8.978;2022-10-23T05:02:28;94986.16;;;13.55;100.00
45941;BME280;31858;46.008;8.978;2022-10-23T05:12:31;94995.69;;;13.42;100.00
45941;BME280;31858;46.008;8.978;2022-10-23T05:22:35;94979.63;;;13.42;100.00
45941;BME280;31858;46.008;8.978;2022-10-23T05:32:40;94986.91;;;13.52;100.00
45941;BME280;31858;46.008;8.978;2022-10-23T05:42:41;94993.44;;;13.58;100.00
45941;BME280;31858;46.008;8.978;2022-10-23T05:52:46;94994.13;;;13.34;100.00
45941;BME280;31858;46.008;8.978;2022-10-23T06:02:48;95015.53;;;13.34;100.00
45941;BME280;31858;46.008;8.978;2022-10-23T06:12:51;95010.09;;;13.16;100.00
45941;BME280;31858;46.008;8.978;2022-10-23T06:22:52;95019.69;;;13.24;100.00
45941;BME280;31858;46.008;8.978;2022-10-23T06:32:55;95043.03;;;13.31;100.00
45941;BME280;31858;46.008;8.978;2022-10-23T06:42:57;95055.69;;;13.34;100.00
45941;BME280;31858;46.008;8.978;2022-10-23T06:53:00;95058.34;;;13.34;100.00
45941;BME280;31858;46.008;8.978;2022-10-23T07:03:03;95066.38;;;13.30;100.00
45941;BME280;31858;46.008;8.978;2022-10-23T07:13:06;95069.16;;;13.55;100.00
45941;BME280;31858;46.008;8.978;2022-10-23T07:23:10;95068.41;;;13.65;100.00
45941;BME280;31858;46.008;8.978;2022-10-23T07:33:13;95097.47;;;13.56;100.00
45941;BME280;31858;46.008;8.978;2022-10-23T07:43:14;95108.53;;;13.51;100.00
45941;BME280;31858;46.008;8.978;2022-10-23T07:53:21;95098.16;;;13.46;100.00
45941;BME280;31858;46.008;8.978;2022-10-23T08:03:23;95110.38;;;13.40;100.00
45941;BME280;31858;46.008;8.978;2022-10-23T08:13:26;95127.22;;;13.41;100.00
45941;BME280;31858;46.008;8.978;2022-10-23T08:23:28;95122.25;;;13.43;100.00
45941;BME280;31858;46.008;8.978;2022-10-23T08:33:31;95141.72;;;13.39;100.00
45941;BME280;31858;46.008;8.978;2022-10-23T08:43:36;95157.03;;;13.39;100.00
45941;BME280;31858;46.008;8.978;2022-10-23T08:53:46;95128.13;;;13.69;100.00
45941;BME280;31858;46.008;8.978;2022-10-23T09:03:50;95138.75;;;13.55;100.00
45941;BME280;31858;46.008;8.978;2022-10-23T09:14:21;95127.22;;;13.44;100.00
45941;BME280;31858;46.008;8.978;2022-10-23T09:24:26;95159.34;;;13.44;100.00
45941;BME280;31858;46.008;8.978;2022-10-23T09:34:33;95144.84;;;13.49;100.00
45941;BME280;31858;46.008;8.978;2022-10-23T09:44:35;95144.88;;;13.52;100.00
45941;BME280;31858;46.008;8.978;2022-10-23T09:54:44;95153.31;;;13.58;100.00
45941;BME280;31858;46.008;8.978;2022-10-23T10:04:46;95148.38;;;13.67;100.00
45941;BME280;31858;46.008;8.978;2022-10-23T10:14:56;95162.97;;;13.77;100.00
45941;BME280;31858;46.008;8.978;2022-10-23T10:25:08;95148.09;;;13.86;100.00
45941;BME280;31858;46.008;8.978;2022-10-23T10:35:27;95145.03;;;13.91;100.00
45941;BME280;31858;46.008;8.978;2022-10-23T10:45:37;95149.25;;;13.89;100.00
45941;BME280;31858;46.008;8.978;2022-10-23T10:55:41;95140.06;;;13.90;100.00
45941;BME280;31858;46.008;8.978;2022-10-23T11:05:45;95125.19;;;14.03;100.00
45941;BME280;31858;46.008;8.978;2022-10-23T11:15:49;95119.09;;;14.13;100.00
45941;BME280;31858;46.008;8.978;2022-10-23T11:26:02;95117.16;;;14.14;100.00
45941;BME280;31858;46.008;8.978;2022-10-23T11:36:15;95112.16;;;14.01;100.00
45941;BME280;31858;46.008;8.978;2022-10-23T11:46:32;95110.25;;;13.98;100.00
45941;BME280;31858;46.008;8.978;2022-10-23T11:56:37;95095.72;;;14.03;100.00
45941;BME280;31858;46.008;8.978;2022-10-23T12:06:41;95102.59;;;14.08;100.00
45941;BME280;31858;46.008;8.978;2022-10-23T12:16:44;95085.41;;;14.16;100.00
45941;BME280;31858;46.008;8.978;2022-10-23T12:27:07;95066.25;;;14.21;100.00
45941;BME280;31858;46.008;8.978;2022-10-23T12:37:38;95055.53;;;14.21;100.00
45941;BME280;31858;46.008;8.978;2022-10-23T12:47:49;95048.28;;;14.21;100.00
45941;BME280;31858;46.008;8.978;2022-10-23T12:57:53;95050.56;;;14.26;100.00
45941;BME280;31858;46.008;8.978;2022-10-23T13:07:56;95038.69;;;14.34;100.00
45941;BME280;31858;46.008;8.978;2022-10-23T13:18:02;95043.28;;;14.23;100.00
45941;BME280;31858;46.008;8.978;2022-10-23T13:28:14;95025.66;;;14.33;100.00
45941;BME280;31858;46.008;8.978;2022-10-23T13:38:28;95035.25;;;14.16;100.00
45941;BME280;31858;46.008;8.978;2022-10-23T13:48:30;95016.50;;;14.23;100.00
45941;BME280;31858;46.008;8.978;2022-10-23T13:58:33;95032.56;;;14.23;100.00
45941;BME280;31858;46.008;8.978;2022-10-23T14:08:35;95024.50;;;14.30;100.00
45941;BME280;31858;46.008;8.978;2022-10-23T14:18:38;95017.25;;;14.24;100.00
45941;BME280;31858;46.008;8.978;2022-10-23T14:28:40;95019.19;;;14.20;100.00
45941;BME280;31858;46.008;8.978;2022-10-23T14:38:43;95015.72;;;14.30;100.00
45941;BME280;31858;46.008;8.978;2022-10-23T14:48:45;94996.59;;;14.46;100.00
45941;BME280;31858;46.008;8.978;2022-10-23T14:58:48;95008.81;;;14.32;100.00
45941;BME280;31858;46.008;8.978;2022-10-23T15:08:50;95005.75;;;14.34;100.00
45941;BME280;31858;46.008;8.978;2022-10-23T15:18:53;95024.13;;;14.32;100.00
45941;BME280;31858;46.008;8.978;2022-10-23T15:28:56;94987.38;;;14.54;100.00
45941;BME280;31858;46.008;8.978;2022-10-23T15:39:00;94988.16;;;14.44;100.00
45941;BME280;31858;46.008;8.978;2022-10-23T15:49:02;94990.84;;;14.29;100.00
45941;BME280;31858;46.008;8.978;2022-10-23T15:59:05;94992.34;;;14.30;100.00
45941;BME280;31858;46.008;8.978;2022-10-23T16:09:07;94983.16;;;14.31;100.00
45941;BME280;31858;46.008;8.978;2022-10-23T16:19:10;94992.75;;;14.25;100.00
45941;BME280;31858;46.008;8.978;2022-10-23T16:29:12;94977.03;;;14.34;100.00
45941;BME280;31858;46.008;8.978;2022-10-23T16:39:17;94972.47;;;14.24;100.00
45941;BME280;31858;46.008;8.978;2022-10-23T16:49:19;94984.72;;;14.22;100.00
45941;BME280;31858;46.008;8.978;2022-10-23T16:59:22;95008.06;;;14.21;100.00
45941;BME280;31858;46.008;8.978;2022-10-23T17:09:23;95013.44;;;14.18;100.00
45941;BME280;31858;46.008;8.978;2022-10-23T17:19:28;95000.41;;;14.27;100.00
45941;BME280;31858;46.008;8.978;2022-10-23T17:29:30;95023.38;;;14.21;100.00
45941;BME280;31858;46.008;8.978;2022-10-23T17:39:33;95005.00;;;14.19;100.00
45941;BME280;31858;46.008;8.978;2022-10-23T17:49:35;94993.53;;;14.15;100.00
45941;BME280;31858;46.008;8.978;2022-10-23T17:59:38;95003.09;;;14.16;100.00
45941;BME280;31858;46.008;8.978;2022-10-23T18:09:39;94997.34;;;14.14;100.00
45941;BME280;31858;46.008;8.978;2022-10-23T18:19:42;95015.34;;;14.21;100.00
45941;BME280;31858;46.008;8.978;2022-10-23T18:29:44;94996.19;;;14.15;100.00
45941;BME280;31858;46.008;8.978;2022-10-23T18:39:47;94992.38;;;14.09;100.00
45941;BME280;31858;46.008;8.978;2022-10-23T18:49:48;94973.63;;;14.13;100.00
45941;BME280;31858;46.008;8.978;2022-10-23T18:59:54;94983.19;;;14.21;100.00
45941;BME280;31858;46.008;8.978;2022-10-23T19:09:56;94966.72;;;14.44;100.00
45941;BME280;31858;46.008;8.978;2022-10-23T19:20:00;94964.81;;;14.30;100.00
45941;BME280;31858;46.008;8.978;2022-10-23T19:30:04;94978.97;;;14.23;100.00
45941;BME280;31858;46.008;8.978;2022-10-23T19:40:13;94981.66;;;14.23;100.00
45941;BME280;31858;46.008;8.978;2022-10-23T19:50:15;94978.19;;;14.01;100.00
45941;BME280;31858;46.008;8.978;2022-10-23T20:00:18;94963.63;;;14.31;100.00
45941;BME280;31858;46.008;8.978;2022-10-23T20:10:20;94962.13;;;14.30;100.00
45941;BME280;31858;46.008;8.978;2022-10-23T20:20:23;94959.06;;;14.24;100.00
45941;BME280;31858;46.008;8.978;2022-10-23T20:30:24;94945.28;;;14.15;100.00
45941;BME280;31858;46.008;8.978;2022-10-23T20:40:27;94972.09;;;14.12;100.00
45941;BME280;31858;46.008;8.978;2022-10-23T20:50:29;94980.88;;;13.98;100.00
45941;BME280;31858;46.008;8.978;2022-10-23T21:00:32;94999.25;;;14.10;100.00
45941;BME280;31858;46.008;8.978;2022-10-23T21:10:33;94976.28;;;14.27;100.00
45941;BME280;31858;46.008;8.978;2022-10-23T21:20:36;94969.75;;;14.31;100.00
45941;BME280;31858;46.008;8.978;2022-10-23T21:30:38;94972.81;;;14.33;100.00
45941;BME280;31858;46.008;8.978;2022-10-23T21:40:42;94970.91;;;14.48;100.00
45941;BME280;31858;46.008;8.978;2022-10-23T21:50:43;94957.53;;;14.45;100.00
45941;BME280;31858;46.008;8.978;2022-10-23T22:00:46;94957.09;;;14.39;100.00
45941;BME280;31858;46.008;8.978;2022-10-23T22:10:48;94956.78;;;14.26;100.00
45941;BME280;31858;46.008;8.978;2022-10-23T22:20:51;94924.63;;;14.19;100.00
45941;BME280;31858;46.008;8.978;2022-10-23T22:30:52;94918.44;;;14.36;100.00
45941;BME280;31858;46.008;8.978;2022-10-23T22:40:55;94918.84;;;14.46;100.00
45941;BME280;31858;46.008;8.978;2022-10-23T22:50:57;94920.75;;;14.31;100.00
45941;BME280;31858;46.008;8.978;2022-10-23T23:01:03;94920.72;;;14.63;100.00
45941;BME280;31858;46.008;8.978;2022-10-23T23:11:06;94924.19;;;14.53;100.00
45941;BME280;31858;46.008;8.978;2022-10-23T23:21:09;94905.41;;;14.53;100.00
45941;BME280;31858;46.008;8.978;2022-10-23T23:31:12;94921.47;;;14.63;100.00
45941;BME280;31858;46.008;8.978;2022-10-23T23:41:19;94922.25;;;14.60;100.00
45941;BME280;31858;46.008;8.978;2022-10-23T23:51:22;94911.16;;;14.55;100.00
